• Join FlightAware (Why Join?)
  • Login
  • US Flag 
12:03PM EDT


 

Airport Tracker/Info


-or-


 

Live Flight TrackerFlight Track Log ✈ UCA4804 ✈ 03-Jul-2013 ✈ KCLE - KBUF

Flight Track Log - Related Links

Times and Time Zones

All times are in EDT time to prevent confusion due to time zone crossing. See the UCA4804 flight status page for this flight to view local times or setup timezone preferences in your user account.

Time Position Orientation Groundspeed Altitude Reporting Facility
EDT Latitude Longitude Course Direction KTS MPH feet Rate Location/Type
08:57AM 41.4025 -81.8703 310° West 118 136 1,600  Level Cleveland Center
08:58AM 41.4167 -81.8928 310° West 151 174 2,500 1,380 Climbing Cleveland Center
08:59AM 41.4650 -81.8578 28° Northeast 190 219 4,400 1,380 Climbing Cleveland Center
09:00AM 41.5072 -81.8086 41° Northeast 195 224 5,900 1,440 Climbing Cleveland Center
09:01AM 41.5475 -81.7594 42° Northeast 195 224 7,300 1,440 Climbing Cleveland Center
09:02AM 41.5897 -81.7103 41° Northeast 195 224 8,800 1,380 Climbing Cleveland Center
09:03AM 41.6339 -81.6611 40° Northeast 195 224 10,100 1,140 Climbing Cleveland Center
09:04AM 41.6739 -81.6144 41° Northeast 200 230 11,100 1,080 Climbing Cleveland Center
09:05AM 41.7203 -81.5567 43° Northeast 214 246 12,300 1,200 Climbing Cleveland Center
09:06AM 41.7667 -81.4933 46° Northeast 222 255 13,500 1,200 Climbing Cleveland Center
09:07AM 41.7986 -81.4158 61° Northeast 232 267 14,700 720 Climbing Cleveland Center
09:08AM 41.8344 -81.3328 60° Northeast 244 281 15,000 780 Climbing Cleveland Center
09:09AM 41.8767 -81.2414 58° Northeast 260 299 16,300 960 Climbing Cleveland Center
09:10AM 41.9147 -81.1581 58° Northeast 260 299 17,000 300 Climbing Cleveland Center
09:11AM 41.9547 -81.0633 60° Northeast 269 310 17,000  Level Cleveland Center
09:12AM 41.9969 -80.9631 60° Northeast 289 333 17,000  Level Cleveland Center
09:13AM 42.0431 -80.8628 58° Northeast 308 354 17,000  Level Cleveland Center
09:14AM 42.0869 -80.7594 60° Northeast 314 361 17,000  Level Cleveland Center
09:15AM 42.1308 -80.6586 60° Northeast 314 361 17,000  Level Cleveland Center
09:16AM 42.1747 -80.5581 59° Northeast 314 361 17,000  Level Cleveland Center
09:17AM 42.2122 -80.4542 64° Northeast 314 361 17,000  Level Cleveland Center
09:18AM 42.2411 -80.3589 68° East 304 350 17,000 -60 Level Cleveland Center
09:19AM 42.2847 -80.2603 59° Northeast 297 342 16,900 -420 Descending Cleveland Center
09:20AM 42.3322 -80.1506 60° Northeast 314 361 16,200 -720 Descending Cleveland Center
09:21AM 42.3797 -80.0436 59° Northeast 319 367 15,500 -720 Descending Cleveland Center
09:22AM 42.4250 -79.9392 60° Northeast 319 367 14,800 -720 Descending Cleveland Center
09:23AM 42.4725 -79.8317 59° Northeast 319 367 14,100 -720 Descending Cleveland Center
09:24AM 42.5175 -79.7297 59° Northeast 319 367 13,400 -780 Descending Cleveland Center
09:25AM 42.5583 -79.6278 61° Northeast 313 360 12,600 -720 Descending Cleveland Center
09:26AM 42.6056 -79.5283 57° Northeast 313 360 12,000 -660 Descending Cleveland Center
09:27AM 42.6483 -79.4286 60° Northeast 313 360 11,300 -660 Descending Cleveland Center
09:28AM 42.6911 -79.3292 60° Northeast 307 353 10,700 -600 Descending Cleveland Center
09:29AM 42.7378 -79.2347 56° Northeast 301 346 10,100 -600 Descending Cleveland Center
09:30AM 42.7931 -79.1375 52° Northeast 296 341 9,500 -780 Descending Cleveland Center
09:31AM 42.8419 -79.0656 47° Northeast 289 333 8,600 -1,080 Descending Cleveland Center
09:32AM 42.8950 -78.9764 51° Northeast 273 314 7,400 -1,680 Descending Cleveland Center
09:33AM 42.9397 -78.8958 53° Northeast 267 307 5,300 -2,400 Descending Cleveland Center
09:34AM 42.9697 -78.8156 63° Northeast 256 295 2,700 -1,980 Descending Cleveland Center
09:35AM 42.9500 -78.7500 112° Southeast 118 136 1,300 -1,320 Descending Buffalo TRACON
09:37AM 42.9404 -78.7306 71° East  Level Estimated
09:44AM 42.9404 -78.7306 71° East  Level Estimated